createdAt,value
2023-10-06T00:02:53.423Z,65.51
2023-10-06T00:07:59.032Z,65.58
2023-10-06T00:13:06.636Z,65.66
2023-10-06T00:18:13.986Z,65.75
2023-10-06T00:23:23.621Z,65.66
2023-10-06T00:28:29.423Z,65.51
2023-10-06T00:33:35.679Z,65.39
2023-10-06T00:38:52.901Z,65.67
2023-10-06T00:43:57.139Z,65.97
2023-10-06T00:49:06.187Z,65.83
2023-10-06T00:54:09.419Z,66.07
2023-10-06T00:59:14.497Z,66.70
2023-10-06T01:04:19.819Z,67.27
2023-10-06T01:09:31.952Z,67.61
2023-10-06T01:14:38.496Z,67.90
2023-10-06T01:19:49.911Z,68.26
2023-10-06T01:24:55.755Z,68.35
2023-10-06T01:30:19.461Z,68.51
2023-10-06T01:35:26.007Z,68.69
2023-10-06T01:40:31.376Z,68.86
2023-10-06T01:45:37.095Z,68.91
2023-10-06T01:50:41.753Z,68.94
2023-10-06T01:55:45.402Z,69.08
2023-10-06T02:00:50.128Z,69.23
2023-10-06T02:06:01.433Z,69.35
2023-10-06T02:11:06.520Z,69.28
2023-10-06T02:16:11.314Z,69.38
2023-10-06T02:21:25.613Z,69.44
2023-10-06T02:26:29.109Z,69.45
2023-10-06T02:31:33.937Z,69.61
2023-10-06T02:36:37.663Z,69.91
2023-10-06T02:41:42.022Z,69.99
2023-10-06T02:46:46.031Z,70.08
2023-10-06T02:51:49.651Z,69.99
2023-10-06T02:56:56.873Z,69.97
2023-10-06T03:02:10.467Z,70.01
2023-10-06T03:07:16.999Z,70.08
2023-10-06T03:12:20.903Z,70.19
2023-10-06T03:17:25.442Z,70.30
2023-10-06T03:22:30.121Z,70.46
2023-10-06T03:27:33.875Z,70.47
2023-10-06T03:32:41.237Z,70.44
2023-10-06T03:37:55.215Z,70.33
2023-10-06T03:43:07.484Z,70.43
2023-10-06T03:48:13.888Z,70.58
2023-10-06T03:53:19.252Z,70.67
2023-10-06T03:58:27.590Z,70.72
2023-10-06T04:03:31.851Z,70.76
2023-10-06T04:08:35.720Z,71.05
2023-10-06T04:13:40.653Z,71.26
2023-10-06T04:18:49.706Z,71.34
2023-10-06T04:23:55.350Z,71.34
2023-10-06T04:29:01.323Z,71.32
2023-10-06T04:34:06.599Z,71.51
2023-10-06T04:39:18.442Z,71.53
2023-10-06T04:44:22.060Z,71.64
2023-10-06T04:49:25.577Z,71.79
2023-10-06T04:54:31.040Z,72.15
2023-10-06T04:59:35.270Z,72.49
2023-10-06T05:04:39.119Z,72.68
2023-10-06T05:09:43.031Z,72.90
2023-10-06T05:14:47.981Z,73.24
2023-10-06T05:19:52.146Z,73.73
2023-10-06T05:24:56.099Z,74.27
2023-10-06T05:30:00.542Z,74.11
2023-10-06T05:35:05.860Z,74.09
2023-10-06T05:40:13.732Z,73.91
2023-10-06T05:45:23.274Z,73.99
2023-10-06T05:50:30.301Z,74.26
2023-10-06T05:55:39.638Z,74.38
2023-10-06T06:00:54.028Z,74.51
2023-10-06T06:06:11.775Z,74.45
2023-10-06T06:11:18.223Z,74.26
2023-10-06T06:16:23.352Z,74.08
2023-10-06T06:21:27.854Z,73.97
2023-10-06T06:26:33.513Z,73.86
2023-10-06T06:31:38.624Z,73.80
2023-10-06T06:36:42.800Z,73.56
2023-10-06T06:41:47.337Z,73.75
2023-10-06T06:46:56.745Z,73.30
2023-10-06T06:52:00.699Z,73.11
2023-10-06T06:57:04.664Z,72.92
2023-10-06T07:02:08.426Z,72.76
2023-10-06T07:07:11.991Z,72.48
2023-10-06T07:12:16.084Z,72.00
2023-10-06T07:17:20.517Z,72.09
2023-10-06T07:22:28.267Z,72.12
2023-10-06T07:27:36.234Z,71.77
2023-10-06T07:32:43.240Z,71.40
2023-10-06T07:37:49.504Z,70.95
2023-10-06T07:42:53.794Z,71.03
2023-10-06T07:47:57.372Z,70.70
2023-10-06T07:53:02.535Z,70.18
2023-10-06T07:58:09.774Z,70.26
2023-10-06T08:03:14.268Z,70.12
2023-10-06T08:08:18.472Z,69.96
2023-10-06T08:13:22.632Z,69.34
2023-10-06T08:18:29.669Z,68.51
2023-10-06T08:23:39.093Z,68.13
2023-10-06T08:28:44.072Z,67.52
2023-10-06T08:33:48.319Z,67.22
2023-10-06T08:38:53.061Z,66.58
2023-10-06T08:44:04.613Z,66.48
2023-10-06T08:49:09.682Z,66.13
2023-10-06T08:54:15.505Z,65.17
2023-10-06T08:59:20.668Z,65.26
2023-10-06T09:04:24.159Z,65.49
2023-10-06T09:09:28.271Z,65.29
2023-10-06T09:14:33.146Z,65.36
2023-10-06T09:19:51.549Z,65.50
2023-10-06T09:25:02.852Z,64.71
2023-10-06T09:30:14.048Z,64.44
2023-10-06T09:35:25.944Z,64.36
2023-10-06T09:40:33.834Z,64.34
2023-10-06T09:45:39.297Z,63.52
2023-10-06T09:50:45.788Z,63.40
2023-10-06T09:55:52.283Z,63.39
2023-10-06T10:00:56.819Z,63.30
2023-10-06T10:06:02.683Z,62.81
2023-10-06T10:11:30.777Z,61.70
2023-10-06T10:16:53.821Z,61.14
2023-10-06T10:22:00.120Z,60.33
2023-10-06T10:27:18.465Z,59.34
2023-10-06T10:32:27.540Z,59.48
2023-10-06T10:37:33.338Z,58.65
2023-10-06T10:42:42.430Z,58.34
2023-10-06T10:47:47.758Z,57.95
2023-10-06T10:52:55.573Z,56.66
2023-10-06T10:58:00.155Z,56.60
2023-10-06T11:03:05.056Z,55.87
2023-10-06T11:08:08.670Z,54.70
2023-10-06T11:13:21.402Z,54.56
2023-10-06T11:18:24.939Z,54.23
2023-10-06T11:23:43.562Z,54.55
2023-10-06T11:28:47.684Z,54.31
2023-10-06T11:33:52.528Z,54.46
2023-10-06T11:38:56.871Z,53.89
2023-10-06T11:44:01.627Z,53.90
2023-10-06T11:49:13.624Z,53.51
2023-10-06T11:54:18.106Z,52.09
2023-10-06T11:59:23.847Z,51.15
2023-10-06T12:04:32.103Z,51.08
2023-10-06T12:09:36.317Z,49.81
2023-10-06T12:14:39.890Z,50.17
2023-10-06T12:19:46.493Z,50.19
2023-10-06T12:24:51.349Z,50.65
2023-10-06T12:29:57.615Z,51.05
2023-10-06T12:35:07.434Z,50.51
2023-10-06T12:40:15.345Z,49.92
2023-10-06T12:45:22.321Z,49.32
2023-10-06T12:50:29.827Z,49.28
2023-10-06T12:55:33.534Z,48.67
2023-10-06T13:00:37.338Z,49.66
2023-10-06T13:05:42.295Z,48.45
2023-10-06T13:10:46.642Z,47.92
2023-10-06T13:15:51.202Z,47.39
2023-10-06T13:20:56.031Z,47.23
2023-10-06T13:26:00.183Z,47.58
2023-10-06T13:31:06.021Z,47.23
2023-10-06T13:36:10.526Z,47.61
2023-10-06T13:41:14.105Z,47.13
2023-10-06T13:46:19.053Z,47.08
2023-10-06T13:51:22.966Z,47.50
2023-10-06T13:56:26.591Z,47.69
2023-10-06T14:01:30.189Z,47.79
2023-10-06T14:06:33.927Z,48.20
2023-10-06T14:11:38.509Z,48.47
2023-10-06T14:16:42.118Z,48.28
2023-10-06T14:21:46.168Z,48.53
2023-10-06T14:26:50.359Z,49.08
2023-10-06T14:32:14.865Z,49.04
2023-10-06T14:37:38.165Z,49.51
2023-10-06T14:43:00.344Z,50.00
2023-10-06T14:48:06.082Z,50.43
2023-10-06T14:53:12.011Z,50.72
2023-10-06T14:58:15.640Z,51.03
2023-10-06T15:03:20.301Z,51.90
2023-10-06T15:08:25.181Z,52.18
2023-10-06T15:13:29.462Z,52.01
2023-10-06T15:18:32.932Z,52.29
2023-10-06T15:23:36.901Z,52.44
2023-10-06T15:28:40.749Z,52.91
2023-10-06T15:33:45.643Z,53.14
2023-10-06T15:38:49.583Z,53.36
2023-10-06T15:43:53.652Z,53.68
2023-10-06T15:49:00.974Z,53.96
2023-10-06T15:54:07.631Z,54.19
2023-10-06T15:59:16.598Z,54.29
2023-10-06T16:04:21.543Z,54.72
2023-10-06T16:09:25.708Z,54.67
2023-10-06T16:14:29.871Z,54.86
2023-10-06T16:19:33.342Z,55.00
2023-10-06T16:24:37.416Z,55.45
2023-10-06T16:29:41.239Z,55.76
2023-10-06T16:34:44.861Z,55.98
2023-10-06T16:39:50.263Z,56.35
2023-10-06T16:44:53.841Z,57.35
2023-10-06T16:49:57.422Z,57.65
2023-10-06T16:55:02.217Z,58.87
2023-10-06T17:00:11.445Z,58.37
2023-10-06T17:05:15.750Z,59.13
2023-10-06T17:10:21.202Z,59.39
2023-10-06T17:15:25.281Z,59.34
2023-10-06T17:20:29.104Z,60.18
2023-10-06T17:25:33.948Z,59.92
2023-10-06T17:30:38.440Z,60.08
2023-10-06T17:35:42.805Z,60.42
2023-10-06T17:40:46.529Z,63.32
2023-10-06T17:45:50.703Z,60.42
2023-10-06T17:50:55.220Z,60.09
2023-10-06T17:56:02.420Z,59.99
2023-10-06T18:01:08.456Z,60.23
2023-10-06T18:06:13.426Z,60.26
2023-10-06T18:11:17.050Z,60.31
2023-10-06T18:16:21.924Z,61.00
2023-10-06T18:21:25.308Z,61.34
2023-10-06T18:26:29.459Z,61.25
2023-10-06T18:31:33.957Z,61.15
2023-10-06T18:36:37.714Z,61.30
2023-10-06T18:41:42.684Z,61.48
2023-10-06T18:46:47.919Z,61.52
2023-10-06T18:51:52.365Z,61.68
2023-10-06T18:56:57.545Z,61.95
2023-10-06T19:02:01.252Z,62.17
2023-10-06T19:07:05.361Z,62.19
2023-10-06T19:12:08.912Z,62.41
2023-10-06T19:17:13.073Z,62.67
2023-10-06T19:22:18.419Z,62.44
2023-10-06T19:27:22.666Z,62.12
2023-10-06T19:32:26.434Z,62.17
2023-10-06T19:37:30.985Z,62.37
2023-10-06T19:42:38.110Z,61.75
2023-10-06T19:47:41.784Z,61.68
2023-10-06T19:52:45.662Z,61.67
2023-10-06T19:57:49.321Z,61.73
2023-10-06T20:02:53.350Z,61.75
2023-10-06T20:07:58.088Z,61.83
2023-10-06T20:13:02.712Z,61.79
2023-10-06T20:18:07.874Z,61.89
2023-10-06T20:23:12.747Z,61.91
2023-10-06T20:28:16.553Z,62.05
2023-10-06T20:33:21.675Z,61.97
2023-10-06T20:38:26.584Z,62.05
2023-10-06T20:43:30.822Z,62.21
2023-10-06T20:48:36.474Z,62.18
2023-10-06T20:53:40.201Z,62.31
2023-10-06T20:58:46.114Z,62.45
2023-10-06T21:03:50.363Z,62.68
2023-10-06T21:08:57.264Z,62.82
2023-10-06T21:14:02.218Z,63.05
2023-10-06T21:19:06.753Z,63.06
2023-10-06T21:24:11.194Z,63.10
2023-10-06T21:29:14.810Z,63.03
2023-10-06T21:34:18.901Z,62.91
2023-10-06T21:39:23.505Z,62.71
2023-10-06T21:44:26.919Z,62.78
2023-10-06T21:49:30.869Z,62.88
2023-10-06T21:54:34.665Z,62.78
2023-10-06T21:59:39.356Z,62.90
2023-10-06T22:04:42.744Z,63.00
2023-10-06T22:09:48.066Z,63.05
2023-10-06T22:14:51.692Z,63.05
2023-10-06T22:19:55.955Z,62.96
2023-10-06T22:25:00.254Z,62.90
2023-10-06T22:30:04.179Z,62.90
2023-10-06T22:35:11.519Z,62.80
2023-10-06T22:40:18.453Z,62.76
2023-10-06T22:45:24.796Z,62.88
2023-10-06T22:50:28.831Z,62.78
2023-10-06T22:55:33.601Z,62.78
2023-10-06T23:00:37.739Z,62.84
2023-10-06T23:05:41.811Z,62.80
2023-10-06T23:10:45.547Z,62.77
2023-10-06T23:15:49.813Z,62.68
2023-10-06T23:20:53.999Z,62.68
2023-10-06T23:25:57.593Z,62.68
2023-10-06T23:31:01.993Z,62.38
2023-10-06T23:36:06.671Z,62.22
2023-10-06T23:41:13.990Z,61.96
2023-10-06T23:46:19.311Z,61.77
2023-10-06T23:51:22.673Z,61.55
2023-10-06T23:56:26.745Z,61.45
